createdAt,value
2022-11-18T00:01:14.168Z,97139.53
2022-11-18T00:03:41.839Z,97141.81
2022-11-18T00:06:15.542Z,97130.31
2022-11-18T00:08:43.033Z,97118.19
2022-11-18T00:11:33.972Z,97123.81
2022-11-18T00:14:19.426Z,97124.56
2022-11-18T00:17:01.629Z,97131.09
2022-11-18T00:19:34.221Z,97125.41
2022-11-18T00:22:01.905Z,97117.69
2022-11-18T00:24:29.197Z,97123.81
2022-11-18T00:26:56.486Z,97125.63
2022-11-18T00:29:24.211Z,97099.09
2022-11-18T00:31:51.087Z,97129.78
2022-11-18T00:34:19.503Z,97123.84
2022-11-18T00:36:47.701Z,97132.00
2022-11-18T00:39:17.791Z,97142.81
2022-11-18T00:42:04.114Z,97126.00
2022-11-18T00:44:31.268Z,97095.66
2022-11-18T00:46:58.530Z,97115.88
2022-11-18T00:49:25.443Z,97127.88
2022-11-18T00:51:52.449Z,97129.16
2022-11-18T00:54:19.631Z,97125.50
2022-11-18T00:56:46.525Z,97116.19
2022-11-18T00:59:13.461Z,97130.84
2022-11-18T01:01:40.493Z,97125.88
2022-11-18T01:04:07.445Z,97117.91
2022-11-18T01:06:34.380Z,97108.59
2022-11-18T01:09:01.303Z,97104.28
2022-11-18T01:11:46.867Z,97119.94
2022-11-18T01:14:13.803Z,97124.53
2022-11-18T01:16:40.712Z,97124.22
2022-11-18T01:19:07.854Z,97123.53
2022-11-18T01:21:34.896Z,97107.94
2022-11-18T01:24:01.846Z,97124.22
2022-11-18T01:26:28.837Z,97116.41
2022-11-18T01:28:57.881Z,97113.91
2022-11-18T01:31:25.215Z,97114.03
2022-11-18T01:33:52.535Z,97099.63
2022-11-18T01:36:25.171Z,97100.81
2022-11-18T01:38:53.360Z,97106.81
2022-11-18T01:41:22.341Z,97088.38
2022-11-18T01:43:54.530Z,97091.91
2022-11-18T01:46:23.152Z,97086.53
2022-11-18T01:48:55.827Z,97080.22
2022-11-18T01:51:32.002Z,97078.59
2022-11-18T01:54:06.434Z,97065.47
2022-11-18T01:56:45.611Z,97066.72
2022-11-18T01:59:17.209Z,97064.69
2022-11-18T02:01:44.828Z,97071.16
2022-11-18T02:04:12.639Z,97064.84
2022-11-18T02:07:01.816Z,97072.50
2022-11-18T02:09:53.366Z,97048.81
2022-11-18T02:12:39.571Z,97063.22
2022-11-18T02:16:10.254Z,97051.72
2022-11-18T02:19:15.061Z,97043.31
2022-11-18T02:22:11.905Z,97064.00
2022-11-18T02:25:04.587Z,97068.50
2022-11-18T02:28:09.893Z,97059.28
2022-11-18T02:31:02.547Z,97066.44
2022-11-18T02:33:43.537Z,97050.19
2022-11-18T02:36:29.656Z,97054.00
2022-11-18T02:39:03.507Z,97054.16
2022-11-18T02:41:34.471Z,97017.53
2022-11-18T02:44:22.358Z,97052.28
2022-11-18T02:46:56.375Z,97049.78
2022-11-18T02:49:39.234Z,97070.69
2022-11-18T02:52:09.280Z,97060.88
2022-11-18T02:54:40.265Z,97063.88
2022-11-18T02:57:09.481Z,97066.56
2022-11-18T02:59:36.426Z,97065.97
2022-11-18T03:02:04.789Z,97054.38
2022-11-18T03:04:34.691Z,97051.38
2022-11-18T03:07:06.130Z,97062.16
2022-11-18T03:09:39.235Z,97069.28
2022-11-18T03:12:24.800Z,97067.28
2022-11-18T03:15:09.343Z,97056.66
2022-11-18T03:18:08.255Z,97055.50
2022-11-18T03:20:56.025Z,97054.06
2022-11-18T03:23:41.780Z,97054.38
2022-11-18T03:26:25.241Z,97058.00
2022-11-18T03:29:02.709Z,97050.72
2022-11-18T03:31:40.012Z,97051.38
2022-11-18T03:34:19.955Z,97055.75
2022-11-18T03:36:52.228Z,97045.31
2022-11-18T03:39:23.497Z,97058.22
2022-11-18T03:41:57.424Z,97051.38
2022-11-18T03:44:31.380Z,97059.41
2022-11-18T03:47:25.576Z,97045.44
2022-11-18T03:50:04.527Z,97039.66
2022-11-18T03:52:35.988Z,97045.97
2022-11-18T03:55:09.839Z,97038.50
2022-11-18T03:57:49.835Z,97055.44
2022-11-18T04:00:18.257Z,97056.78
2022-11-18T04:02:48.091Z,97046.97
2022-11-18T04:05:18.425Z,97042.16
2022-11-18T04:07:55.489Z,97020.28
2022-11-18T04:10:45.305Z,97039.34
2022-11-18T04:13:14.802Z,97039.19
2022-11-18T04:15:43.015Z,97031.06
2022-11-18T04:18:10.748Z,97024.25
2022-11-18T04:20:38.549Z,97031.88
2022-11-18T04:23:07.183Z,97026.06
2022-11-18T04:25:34.818Z,97013.66
2022-11-18T04:28:02.075Z,97011.78
2022-11-18T04:30:29.249Z,97022.63
2022-11-18T04:32:56.172Z,97011.31
2022-11-18T04:35:23.243Z,96997.25
2022-11-18T04:37:50.168Z,97015.63
2022-11-18T04:40:17.338Z,97019.25
2022-11-18T04:42:44.422Z,97019.25
2022-11-18T04:45:12.048Z,97011.75
2022-11-18T04:47:39.249Z,97018.41
2022-11-18T04:50:06.644Z,97022.91
2022-11-18T04:52:33.620Z,97024.41
2022-11-18T04:55:00.567Z,97020.06
2022-11-18T04:57:27.583Z,97017.63
2022-11-18T04:59:54.490Z,97020.63
2022-11-18T05:02:21.466Z,97025.66
2022-11-18T05:04:48.418Z,97014.69
2022-11-18T05:07:16.558Z,97020.94
2022-11-18T05:09:43.569Z,97027.59
2022-11-18T05:12:33.434Z,97028.75
2022-11-18T05:15:00.765Z,97026.41
2022-11-18T05:17:29.034Z,97030.06
2022-11-18T05:19:56.111Z,97026.41
2022-11-18T05:22:23.090Z,97022.81
2022-11-18T05:24:49.999Z,97015.63
2022-11-18T05:27:17.122Z,97025.22
2022-11-18T05:29:44.595Z,97020.06
2022-11-18T05:32:11.975Z,97035.19
2022-11-18T05:34:40.755Z,97037.00
2022-11-18T05:37:08.009Z,97042.47
2022-11-18T05:39:34.889Z,97051.75
2022-11-18T05:42:20.580Z,97050.41
2022-11-18T05:44:47.569Z,97047.91
2022-11-18T05:47:14.570Z,97055.56
2022-11-18T05:49:41.440Z,97056.72
2022-11-18T05:52:08.424Z,97044.13
2022-11-18T05:54:35.563Z,97009.84
2022-11-18T05:57:02.552Z,97052.94
2022-11-18T05:59:29.466Z,97063.88
2022-11-18T06:02:02.348Z,97055.03
2022-11-18T06:04:36.854Z,97067.66
2022-11-18T06:07:12.247Z,97062.50
2022-11-18T06:09:43.468Z,97068.94
2022-11-18T06:12:16.770Z,97064.13
2022-11-18T06:14:50.339Z,97069.94
2022-11-18T06:17:24.884Z,97071.97
2022-11-18T06:19:52.522Z,97074.97
2022-11-18T06:22:19.881Z,97078.66
2022-11-18T06:24:46.946Z,97088.44
2022-11-18T06:27:14.839Z,97085.59
2022-11-18T06:29:41.820Z,97094.88
2022-11-18T06:32:08.911Z,97097.84
2022-11-18T06:34:41.239Z,97099.41
2022-11-18T06:37:23.313Z,97077.03
2022-11-18T06:39:50.280Z,97103.00
2022-11-18T06:42:37.106Z,97103.84
2022-11-18T06:45:06.324Z,97109.16
2022-11-18T06:47:33.289Z,97110.63
2022-11-18T06:50:00.182Z,97106.34
2022-11-18T06:52:27.865Z,97107.81
2022-11-18T06:54:54.790Z,97107.81
2022-11-18T06:57:21.847Z,97115.69
2022-11-18T06:59:48.780Z,97118.34
2022-11-18T07:02:15.723Z,97115.50
2022-11-18T07:04:42.669Z,97114.38
2022-11-18T07:07:09.662Z,97112.88
2022-11-18T07:09:37.528Z,97120.53
2022-11-18T07:12:04.963Z,97119.19
2022-11-18T07:14:32.498Z,97123.66
2022-11-18T07:16:59.419Z,97125.78
2022-11-18T07:19:29.060Z,97121.16
2022-11-18T07:22:00.354Z,97125.47
2022-11-18T07:24:27.258Z,97122.16
2022-11-18T07:26:54.676Z,97110.72
2022-11-18T07:29:21.573Z,97115.84
2022-11-18T07:31:48.493Z,97110.84
2022-11-18T07:34:15.527Z,97114.50
2022-11-18T07:36:42.515Z,97113.34
2022-11-18T07:39:09.759Z,97108.00
2022-11-18T07:41:36.714Z,97092.56
2022-11-18T07:44:05.338Z,97092.25
2022-11-18T07:46:35.235Z,97087.75
2022-11-18T07:49:05.682Z,97091.06
2022-11-18T07:51:35.565Z,97090.59
2022-11-18T07:54:13.496Z,97058.31
2022-11-18T07:56:40.657Z,97099.22
2022-11-18T07:59:07.998Z,97097.75
2022-11-18T08:01:35.544Z,97099.41
2022-11-18T08:04:12.789Z,97108.47
2022-11-18T08:06:40.499Z,97104.31
2022-11-18T08:09:08.245Z,97104.88
2022-11-18T08:11:35.421Z,97106.19
2022-11-18T08:14:02.668Z,97115.47
2022-11-18T08:16:30.010Z,97109.00
2022-11-18T08:18:58.988Z,97116.97
2022-11-18T08:21:25.904Z,97111.41
2022-11-18T08:23:55.628Z,97109.28
2022-11-18T08:26:23.467Z,97110.66
2022-11-18T08:28:50.717Z,97114.94
2022-11-18T08:31:26.317Z,97117.63
2022-11-18T08:34:01.648Z,97115.13
2022-11-18T08:36:30.846Z,97127.06
2022-11-18T08:38:59.554Z,97123.78
2022-11-18T08:41:36.804Z,97121.09
2022-11-18T08:44:04.956Z,97125.25
2022-11-18T08:46:32.636Z,97124.41
2022-11-18T08:49:00.285Z,97135.06
2022-11-18T08:51:28.044Z,97109.06
2022-11-18T08:53:55.044Z,97128.28
2022-11-18T08:56:23.574Z,97127.28
2022-11-18T08:58:51.291Z,97135.06
2022-11-18T09:01:18.518Z,97134.91
2022-11-18T09:03:45.946Z,97139.88
2022-11-18T09:06:16.167Z,97132.75
2022-11-18T09:08:43.499Z,97136.53
2022-11-18T09:11:11.621Z,97136.56
2022-11-18T09:14:39.115Z,97122.16
2022-11-18T09:16:28.306Z,97140.53
2022-11-18T09:18:57.089Z,97131.09
2022-11-18T09:21:25.838Z,97130.44
2022-11-18T09:23:53.101Z,97138.22
2022-11-18T09:26:23.928Z,97136.06
2022-11-18T09:28:53.900Z,97133.03
2022-11-18T09:31:21.049Z,97129.38
2022-11-18T09:33:48.532Z,97138.34
2022-11-18T09:36:21.176Z,97134.69
2022-11-18T09:38:51.875Z,97140.84
2022-11-18T09:41:38.566Z,97142.03
2022-11-18T09:44:17.859Z,97139.56
2022-11-18T09:47:23.128Z,97146.69
2022-11-18T09:49:50.278Z,97140.88
2022-11-18T09:52:24.982Z,97124.94
2022-11-18T09:54:52.079Z,97134.09
2022-11-18T09:57:24.608Z,97130.41
2022-11-18T09:59:52.796Z,97112.16
2022-11-18T10:02:45.659Z,97137.03
2022-11-18T10:05:22.842Z,97135.84
2022-11-18T10:08:14.113Z,97139.66
2022-11-18T10:11:12.930Z,97143.66
2022-11-18T10:13:58.623Z,97144.00
2022-11-18T10:17:02.626Z,97162.41
2022-11-18T10:19:36.434Z,97174.06
2022-11-18T10:22:35.126Z,97160.25
2022-11-18T10:25:02.067Z,97168.56
2022-11-18T10:27:41.174Z,97172.09
2022-11-18T10:30:19.781Z,97175.56
2022-11-18T10:32:58.249Z,97175.25
2022-11-18T10:35:31.070Z,97172.59
2022-11-18T10:38:24.084Z,97162.63
2022-11-18T10:40:52.352Z,97155.84
2022-11-18T10:43:45.913Z,97165.13
2022-11-18T10:46:29.595Z,97158.66
2022-11-18T10:49:17.711Z,97164.78
2022-11-18T10:52:10.504Z,97163.47
2022-11-18T10:54:38.110Z,97171.59
2022-11-18T10:57:23.895Z,97166.16
2022-11-18T10:59:58.153Z,97178.25
2022-11-18T11:02:31.204Z,97169.47
2022-11-18T11:05:01.870Z,97164.34
2022-11-18T11:07:37.164Z,97180.25
2022-11-18T11:10:07.225Z,97180.09
2022-11-18T11:12:37.721Z,97176.97
2022-11-18T11:15:11.123Z,97175.44
2022-11-18T11:17:43.322Z,97169.31
2022-11-18T11:20:24.870Z,97179.41
2022-11-18T11:22:51.822Z,97174.31
2022-11-18T11:25:28.248Z,97170.81
2022-11-18T11:31:11.839Z,97178.25
2022-11-18T11:33:47.664Z,97170.81
2022-11-18T11:36:35.868Z,97157.22
2022-11-18T11:39:12.416Z,97156.72
2022-11-18T11:41:44.980Z,97171.63
2022-11-18T11:44:36.183Z,97168.66
2022-11-18T11:47:36.724Z,97170.00
2022-11-18T11:50:31.445Z,97162.84
2022-11-18T11:53:21.250Z,97168.97
2022-11-18T11:56:04.245Z,97164.66
2022-11-18T11:58:52.124Z,97175.44
2022-11-18T12:01:49.734Z,97169.31
2022-11-18T12:04:25.550Z,97162.34
2022-11-18T12:06:55.448Z,97173.94
2022-11-18T12:09:29.279Z,97169.47
2022-11-18T12:12:36.343Z,97182.06
2022-11-18T12:15:26.394Z,97177.59
2022-11-18T12:18:09.191Z,97174.94
2022-11-18T12:20:48.163Z,97175.25
2022-11-18T12:23:16.770Z,97177.56
2022-11-18T12:25:53.239Z,97180.88
2022-11-18T12:28:42.801Z,97172.75
2022-11-18T12:31:18.907Z,97186.00
2022-11-18T12:33:50.220Z,97185.19
2022-11-18T12:36:40.257Z,97182.88
2022-11-18T12:39:25.639Z,97176.25
2022-11-18T12:42:16.441Z,97152.31
2022-11-18T12:44:45.951Z,97198.09
2022-11-18T12:47:35.352Z,97200.25
2022-11-18T12:50:15.994Z,97198.75
2022-11-18T12:52:42.829Z,97193.47
2022-11-18T12:55:21.249Z,97196.28
2022-11-18T12:57:48.144Z,97193.47
2022-11-18T13:00:24.150Z,97198.78
2022-11-18T13:02:55.331Z,97196.25
2022-11-18T13:05:24.454Z,97194.59
2022-11-18T13:08:09.849Z,97193.28
2022-11-18T13:10:45.095Z,97201.88
2022-11-18T13:13:24.352Z,97197.25
2022-11-18T13:16:10.096Z,97199.38
2022-11-18T13:18:48.916Z,97206.03
2022-11-18T13:21:44.207Z,97207.84
2022-11-18T13:24:16.868Z,97211.44
2022-11-18T13:26:46.390Z,97218.22
2022-11-18T13:29:22.580Z,97207.63
2022-11-18T13:31:58.398Z,97210.63
2022-11-18T13:34:28.237Z,97221.41
2022-11-18T13:36:58.357Z,97222.28
2022-11-18T13:39:29.683Z,97228.22
2022-11-18T13:42:16.389Z,97219.09
2022-11-18T13:44:47.445Z,97215.66
2022-11-18T13:47:29.556Z,97231.56
2022-11-18T13:50:13.166Z,97235.72
2022-11-18T13:52:45.074Z,97237.34
2022-11-18T13:55:40.258Z,97209.44
2022-11-18T13:58:29.773Z,97233.88
2022-11-18T14:01:00.913Z,97231.88
2022-11-18T14:03:33.248Z,97234.34
2022-11-18T14:06:00.890Z,97242.97
2022-11-18T14:08:31.513Z,97249.78
2022-11-18T14:10:59.212Z,97244.00
2022-11-18T14:13:37.507Z,97238.84
2022-11-18T14:16:24.298Z,97257.03
2022-11-18T14:18:52.229Z,97256.09
2022-11-18T14:21:30.366Z,97243.31
2022-11-18T14:23:58.293Z,97250.44
2022-11-18T14:26:32.323Z,97252.91
2022-11-18T14:29:02.099Z,97258.22
2022-11-18T14:31:31.905Z,97265.69
2022-11-18T14:34:20.057Z,97263.38
2022-11-18T14:36:48.182Z,97271.34
2022-11-18T14:39:32.398Z,97275.72
2022-11-18T14:41:59.728Z,97280.25
2022-11-18T14:44:28.075Z,97284.59
2022-11-18T14:47:03.097Z,97276.59
2022-11-18T14:49:32.992Z,97292.81
2022-11-18T14:52:02.862Z,97294.81
2022-11-18T14:54:31.200Z,97298.81
2022-11-18T14:57:01.840Z,97306.41
2022-11-18T14:59:32.355Z,97304.06
2022-11-18T15:01:59.830Z,97298.25
2022-11-18T15:04:26.909Z,97311.66
2022-11-18T15:06:54.091Z,97302.56
2022-11-18T15:09:21.205Z,97311.00
2022-11-18T15:11:48.127Z,97315.69
2022-11-18T15:14:15.789Z,97321.97
2022-11-18T15:16:42.992Z,97323.28
2022-11-18T15:19:15.413Z,97317.34
2022-11-18T15:21:43.769Z,97324.34
2022-11-18T15:24:10.734Z,97322.84
2022-11-18T15:26:43.442Z,97321.59
2022-11-18T15:29:21.885Z,97327.03
2022-11-18T15:31:49.420Z,97315.63
2022-11-18T15:34:18.615Z,97325.38
2022-11-18T15:36:46.251Z,97309.75
2022-11-18T15:39:14.073Z,97334.09
2022-11-18T15:41:43.135Z,97338.28
2022-11-18T15:44:11.375Z,97329.34
2022-11-18T15:46:39.414Z,97331.31
2022-11-18T15:49:09.476Z,97319.13
2022-11-18T15:51:37.325Z,97337.44
2022-11-18T15:54:04.344Z,97333.81
2022-11-18T15:56:32.082Z,97338.06
2022-11-18T15:59:13.473Z,97348.00
2022-11-18T16:01:45.860Z,97354.19
2022-11-18T16:04:14.825Z,97342.75
2022-11-18T16:06:44.750Z,97346.31
2022-11-18T16:09:13.096Z,97355.84
2022-11-18T16:11:58.819Z,97355.84
2022-11-18T16:14:26.285Z,97360.78
2022-11-18T16:16:55.479Z,97355.84
2022-11-18T16:19:24.884Z,97350.19
2022-11-18T16:21:57.278Z,97353.84
2022-11-18T16:24:27.033Z,97358.38
2022-11-18T16:26:54.813Z,97346.94
2022-11-18T16:29:22.526Z,97366.06
2022-11-18T16:31:54.887Z,97345.63
2022-11-18T16:34:25.131Z,97365.59
2022-11-18T16:36:55.694Z,97377.34
2022-11-18T16:39:26.011Z,97379.06
2022-11-18T16:42:02.122Z,97375.88
2022-11-18T16:44:33.656Z,97384.53
2022-11-18T16:47:00.606Z,97373.56
2022-11-18T16:49:28.215Z,97389.50
2022-11-18T16:51:57.141Z,97390.44
2022-11-18T16:54:29.022Z,97402.41
2022-11-18T16:56:58.775Z,97393.13
2022-11-18T16:59:28.156Z,97387.66
2022-11-18T17:01:57.489Z,97407.09
2022-11-18T17:04:27.937Z,97383.88
2022-11-18T17:06:56.818Z,97403.84
2022-11-18T17:09:26.489Z,97396.56
2022-11-18T17:11:56.007Z,97403.75
2022-11-18T17:14:23.699Z,97409.66
2022-11-18T17:16:51.774Z,97420.19
2022-11-18T17:19:21.838Z,97416.50
2022-11-18T17:21:50.300Z,97413.22
2022-11-18T17:24:20.714Z,97412.25
2022-11-18T17:26:48.780Z,97386.47
2022-11-18T17:29:16.965Z,97416.09
2022-11-18T17:31:44.433Z,97414.16
2022-11-18T17:34:13.403Z,97411.31
2022-11-18T17:36:40.993Z,97425.22
2022-11-18T17:39:11.191Z,97409.78
2022-11-18T17:41:56.911Z,97422.84
2022-11-18T17:44:24.822Z,97428.38
2022-11-18T17:46:51.871Z,97412.75
2022-11-18T17:49:19.673Z,97421.41
2022-11-18T17:51:46.652Z,97423.69
2022-11-18T17:54:14.676Z,97397.34
2022-11-18T17:56:43.445Z,97442.09
2022-11-18T17:59:10.789Z,97440.34
2022-11-18T18:01:37.828Z,97431.78
2022-11-18T18:04:05.381Z,97433.75
2022-11-18T18:06:32.555Z,97431.78
2022-11-18T18:08:59.735Z,97416.59
2022-11-18T18:11:27.938Z,97447.53
2022-11-18T18:14:13.976Z,97451.56
2022-11-18T18:16:45.954Z,97421.38
2022-11-18T18:19:16.045Z,97440.44
2022-11-18T18:21:43.152Z,97444.22
2022-11-18T18:24:10.588Z,97441.94
2022-11-18T18:26:38.249Z,97446.94
2022-11-18T18:29:05.882Z,97434.25
2022-11-18T18:31:37.434Z,97448.75
2022-11-18T18:34:05.305Z,97445.41
2022-11-18T18:36:32.866Z,97447.03
2022-11-18T18:39:01.156Z,97454.22
2022-11-18T18:41:28.440Z,97468.28
2022-11-18T18:43:57.056Z,97459.75
2022-11-18T18:46:36.805Z,97461.50
2022-11-18T18:49:09.239Z,97465.13
2022-11-18T18:51:39.768Z,97472.09
2022-11-18T18:54:09.859Z,97470.25
2022-11-18T18:56:36.857Z,97468.28
2022-11-18T18:59:03.872Z,97475.19
2022-11-18T19:01:31.491Z,97476.00
2022-11-18T19:04:01.202Z,97480.78
2022-11-18T19:09:18.350Z,97467.91
2022-11-18T19:12:04.734Z,97495.53
2022-11-18T19:14:35.638Z,97492.97
2022-11-18T19:17:09.675Z,97475.66
2022-11-18T19:19:57.244Z,97493.34
2022-11-18T19:22:24.772Z,97507.56
2022-11-18T19:24:52.576Z,97494.91
2022-11-18T19:27:20.612Z,97491.44
2022-11-18T19:29:47.610Z,97494.91
2022-11-18T19:32:15.619Z,97498.56
2022-11-18T19:34:44.345Z,97506.28
2022-11-18T19:37:11.507Z,97502.72
2022-11-18T19:39:38.826Z,97503.88
2022-11-18T19:42:06.037Z,97505.13
2022-11-18T19:44:32.971Z,97502.88
2022-11-18T19:47:00.234Z,97499.94
2022-11-18T19:49:27.173Z,97503.78
2022-11-18T19:51:54.101Z,97510.28
2022-11-18T19:54:21.019Z,97512.81
2022-11-18T19:56:48.000Z,97512.19
2022-11-18T19:59:14.933Z,97505.75
2022-11-18T20:01:42.039Z,97503.50
2022-11-18T20:04:09.144Z,97492.06
2022-11-18T20:06:37.105Z,97482.91
2022-11-18T20:09:07.993Z,97498.66
2022-11-18T20:11:37.374Z,97499.69
2022-11-18T20:14:04.771Z,97493.72
2022-11-18T20:16:32.562Z,97517.41
2022-11-18T20:19:09.335Z,97510.81
2022-11-18T20:21:39.388Z,97509.31
2022-11-18T20:24:08.181Z,97518.25
2022-11-18T20:26:37.764Z,97528.69
2022-11-18T20:29:08.801Z,97529.28
2022-11-18T20:31:36.738Z,97529.16
2022-11-18T20:34:04.784Z,97529.81
2022-11-18T20:36:36.729Z,97508.53
2022-11-18T20:39:11.907Z,97556.88
2022-11-18T20:41:38.917Z,97551.56
2022-11-18T20:44:05.989Z,97552.63
2022-11-18T20:46:34.715Z,97564.88
2022-11-18T20:49:02.072Z,97557.31
2022-11-18T20:51:29.332Z,97541.44
2022-11-18T20:53:57.852Z,97508.94
2022-11-18T20:56:26.770Z,97539.81
2022-11-18T20:58:54.119Z,97530.06
2022-11-18T21:01:23.486Z,97543.63
2022-11-18T21:03:55.878Z,97555.41
2022-11-18T21:06:24.558Z,97558.75
2022-11-18T21:08:59.756Z,97561.00
2022-11-18T21:11:27.739Z,97563.97
2022-11-18T21:14:16.009Z,97538.81
2022-11-18T21:16:46.427Z,97564.63
2022-11-18T21:19:14.263Z,97560.75
2022-11-18T21:21:52.290Z,97571.09
2022-11-18T21:24:22.092Z,97577.50
2022-11-18T21:26:50.878Z,97560.41
2022-11-18T21:29:18.617Z,97561.97
2022-11-18T21:31:47.395Z,97567.56
2022-11-18T21:34:16.220Z,97577.84
2022-11-18T21:36:47.006Z,97578.13
2022-11-18T21:39:17.780Z,97582.25
2022-11-18T21:41:47.489Z,97585.22
2022-11-18T21:44:16.650Z,97591.19
2022-11-18T21:46:43.616Z,97606.00
2022-11-18T21:49:10.776Z,97607.19
2022-11-18T21:51:37.897Z,97601.31
2022-11-18T21:54:05.151Z,97597.19
2022-11-18T21:56:32.665Z,97594.72
2022-11-18T21:59:01.995Z,97588.72
2022-11-18T22:01:31.884Z,97602.84
2022-11-18T22:04:01.077Z,97604.38
2022-11-18T22:06:30.370Z,97613.03
2022-11-18T22:08:57.871Z,97616.41
2022-11-18T22:11:25.933Z,97600.94
2022-11-18T22:13:53.610Z,97605.22
2022-11-18T22:16:25.400Z,97588.16
2022-11-18T22:19:01.175Z,97617.59
2022-11-18T22:21:31.077Z,97610.16
2022-11-18T22:24:02.265Z,97610.91
2022-11-18T22:26:29.936Z,97612.72
2022-11-18T22:28:58.609Z,97624.13
2022-11-18T22:31:28.294Z,97622.47
2022-11-18T22:33:56.588Z,97632.06
2022-11-18T22:36:25.588Z,97636.84
2022-11-18T22:38:53.815Z,97628.31
2022-11-18T22:41:41.832Z,97633.19
2022-11-18T22:44:10.236Z,97603.59
2022-11-18T22:46:38.560Z,97639.34
2022-11-18T22:49:08.129Z,97638.22
2022-11-18T22:51:39.229Z,97636.94
2022-11-18T22:56:55.021Z,97622.94
2022-11-18T22:59:22.508Z,97646.88
2022-11-18T23:01:51.947Z,97645.78
2022-11-18T23:04:19.197Z,97643.72
2022-11-18T23:06:46.497Z,97646.91
2022-11-18T23:09:13.459Z,97647.56
2022-11-18T23:11:59.132Z,97640.34
2022-11-18T23:14:26.218Z,97621.59
2022-11-18T23:16:53.736Z,97646.88
2022-11-18T23:19:21.046Z,97639.41
2022-11-18T23:21:48.908Z,97654.72
2022-11-18T23:24:18.130Z,97649.16
2022-11-18T23:26:45.887Z,97657.19
2022-11-18T23:29:14.700Z,97653.97
2022-11-18T23:31:44.054Z,97651.03
2022-11-18T23:34:12.782Z,97653.56
2022-11-18T23:36:40.525Z,97668.16
2022-11-18T23:39:07.802Z,97663.84
2022-11-18T23:41:34.847Z,97664.94
2022-11-18T23:44:04.880Z,97661.19
2022-11-18T23:46:33.071Z,97661.91
2022-11-18T23:48:59.997Z,97665.75
2022-11-18T23:51:27.007Z,97676.31
2022-11-18T23:53:58.059Z,97666.59
2022-11-18T23:56:27.669Z,97680.06
2022-11-18T23:58:56.278Z,97670.75
